Time;durP1;ratioP1;P1;durP2;ratioP2;P2;SDS_P1;SDS_P2;PMS_P1;PMS_P2;Temp;Humidity;BMP_temperature;BMP_pressure;BME280_temperature;BME280_humidity;BME280_pressure;Samples;Min_cycle;Max_cycle;Signal;HPM_P1;HPM_P2
2023/05/14 00:00:40;;;;;;;17.00;15.33;;;13.90;1.00;;;;;;5061334;28;20244;-83
2023/05/14 00:03:05;;;;;;;17.90;15.37;;;13.80;1.00;;;;;;5064470;28;20202;-83
2023/05/14 00:05:31;;;;;;;15.57;13.97;;;13.70;1.00;;;;;;5060060;28;20170;-83
2023/05/14 00:07:56;;;;;;;15.13;13.80;;;13.70;1.00;;;;;;5060995;28;20187;-82
2023/05/14 00:10:22;;;;;;;15.00;13.53;;;13.70;1.00;;;;;;5060754;28;20186;-83
2023/05/14 00:12:48;;;;;;;15.20;13.70;;;13.70;1.00;;;;;;5057540;28;20255;-81
2023/05/14 00:15:13;;;;;;;16.13;14.53;;;13.70;1.00;;;;;;5049186;28;20576;-82
2023/05/14 00:17:38;;;;;;;15.93;14.33;;;13.70;1.00;;;;;;5059765;28;20613;-81
2023/05/14 00:20:08;;;;;;;16.33;14.50;;;13.70;1.00;;;;;;5059220;28;20203;-83
2023/05/14 00:22:33;;;;;;;16.20;14.30;;;13.70;1.00;;;;;;5060665;28;20220;-83
2023/05/14 00:24:59;;;;;;;18.43;15.20;;;13.70;1.00;;;;;;5060664;28;20499;-82
2023/05/14 00:27:25;;;;;;;16.23;14.10;;;13.60;1.00;;;;;;5059876;28;20236;-83
2023/05/14 00:29:50;;;;;;;16.97;15.27;;;13.60;1.00;;;;;;5053493;28;20184;-81
2023/05/14 00:32:16;;;;;;;17.23;15.47;;;13.60;1.00;;;;;;5058922;28;20186;-81
2023/05/14 00:34:41;;;;;;;16.97;14.17;;;13.60;1.00;;;;;;5057334;28;20190;-82
2023/05/14 00:37:07;;;;;;;17.23;15.43;;;13.50;1.00;;;;;;5059577;28;20196;-84
2023/05/14 00:39:33;;;;;;;17.83;16.10;;;13.50;1.00;;;;;;5058186;28;20182;-82
2023/05/14 00:41:59;;;;;;;18.73;16.83;;;13.50;1.00;;;;;;5057401;28;20220;-82
2023/05/14 00:44:24;;;;;;;18.17;16.27;;;13.40;1.00;;;;;;5058648;28;20451;-82
2023/05/14 00:46:51;;;;;;;17.30;15.57;;;13.40;1.00;;;;;;5064541;28;20179;-80
2023/05/14 00:49:17;;;;;;;17.80;16.00;;;13.40;1.00;;;;;;5058604;28;20189;-82
2023/05/14 00:51:45;;;;;;;18.17;16.47;;;13.40;1.00;;;;;;5058278;28;20432;-81
2023/05/14 00:54:15;;;;;;;18.50;16.70;;;13.30;1.00;;;;;;5060242;28;20478;-82
2023/05/14 00:56:43;;;;;;;20.17;17.90;;;13.30;1.00;;;;;;5060016;28;20508;-82
2023/05/14 00:59:09;;;;;;;20.20;18.10;;;13.30;1.00;;;;;;5053943;28;20448;-83
2023/05/14 01:01:34;;;;;;;19.10;17.07;;;13.30;1.00;;;;;;5057630;28;20893;-82
2023/05/14 01:04:00;;;;;;;20.30;16.70;;;13.20;1.00;;;;;;5055510;28;20698;-80
2023/05/14 01:06:36;;;;;;;21.00;18.70;;;13.20;1.00;;;;;;5067792;28;20173;-82
2023/05/14 01:09:14;;;;;;;22.60;20.30;;;13.10;22.10;;;;;;5062523;28;20431;-83
2023/05/14 01:11:59;;;;;;;22.63;20.23;;;13.10;1.00;;;;;;5059450;28;20504;-83
2023/05/14 01:14:48;;;;;;;21.77;19.50;;;13.00;22.50;;;;;;5051796;28;20462;-80
2023/05/14 01:17:18;;;;;;;19.93;17.97;;;13.00;22.00;;;;;;5057267;28;20447;-83
2023/05/14 01:19:46;;;;;;;20.97;18.67;;;13.00;34.70;;;;;;5069266;28;20468;-83
2023/05/14 01:22:12;;;;;;;20.63;18.43;;;13.00;37.50;;;;;;5052999;28;20826;-83
2023/05/14 01:24:38;;;;;;;20.73;18.53;;;12.90;99.90;;;;;;5059439;28;20409;-81
2023/05/14 01:27:26;;;;;;;19.30;17.40;;;12.90;73.40;;;;;;5056793;28;20802;-81
2023/05/14 01:30:06;;;;;;;21.70;19.40;;;12.90;97.60;;;;;;5056270;28;20478;-80
2023/05/14 01:32:32;;;;;;;20.30;17.73;;;12.80;92.30;;;;;;5055876;28;20439;-83
2023/05/14 01:34:59;;;;;;;20.30;18.20;;;12.80;91.80;;;;;;5054932;28;20485;-83
2023/05/14 01:37:27;;;;;;;23.03;18.00;;;12.80;96.20;;;;;;5052136;28;20428;-82
2023/05/14 01:39:55;;;;;;;22.00;19.70;;;12.70;99.90;;;;;;5057595;28;20427;-82
2023/05/14 01:42:20;;;;;;;20.20;17.60;;;12.80;99.90;;;;;;5057783;28;20427;-81
2023/05/14 01:44:46;;;;;;;22.07;18.40;;;12.80;94.90;;;;;;5055274;28;20436;-82
2023/05/14 01:47:12;;;;;;;21.57;19.43;;;12.80;77.70;;;;;;5057821;28;20663;-83
2023/05/14 01:49:37;;;;;;;22.40;20.20;;;12.80;70.40;;;;;;5056508;28;20173;-79
2023/05/14 01:52:03;;;;;;;19.43;17.53;;;12.70;99.90;;;;;;5055637;28;20186;-79
2023/05/14 01:54:28;;;;;;;21.70;19.17;;;12.70;99.90;;;;;;5053515;28;20205;-81
2023/05/14 01:56:54;;;;;;;21.83;19.60;;;12.70;99.90;;;;;;5052770;28;20678;-82
2023/05/14 01:59:19;;;;;;;21.60;19.33;;;12.60;99.90;;;;;;5055507;28;20220;-82
2023/05/14 02:01:45;;;;;;;21.30;18.80;;;12.60;99.90;;;;;;5052510;28;20205;-82
2023/05/14 02:04:10;;;;;;;18.87;16.87;;;12.60;99.90;;;;;;5051718;28;20233;-82
2023/05/14 02:06:36;;;;;;;21.00;17.37;;;12.60;99.90;;;;;;5058371;28;20865;-83
2023/05/14 02:09:02;;;;;;;24.43;19.07;;;12.50;99.90;;;;;;5054118;28;20185;-82
2023/05/14 02:11:27;;;;;;;21.23;19.00;;;12.50;99.90;;;;;;5043959;28;20186;-82
2023/05/14 02:13:53;;;;;;;23.20;19.63;;;12.40;99.90;;;;;;5057044;28;20701;-83
2023/05/14 02:16:18;;;;;;;24.83;21.00;;;12.40;99.90;;;;;;5054764;28;20188;-81
2023/05/14 02:18:43;;;;;;;24.37;21.77;;;12.30;99.90;;;;;;5055690;28;20699;-83
2023/05/14 02:21:09;;;;;;;23.10;20.47;;;12.30;99.90;;;;;;5057252;28;20210;-82
2023/05/14 02:23:35;;;;;;;23.97;21.57;;;12.20;99.90;;;;;;5055339;28;20685;-80
2023/05/14 02:26:00;;;;;;;24.97;22.37;;;12.20;99.90;;;;;;5053715;28;20268;-82
2023/05/14 02:28:26;;;;;;;25.10;22.50;;;12.20;99.90;;;;;;5051456;28;20186;-82
2023/05/14 02:30:51;;;;;;;25.87;23.00;;;12.20;99.90;;;;;;5056537;28;20185;-81
2023/05/14 02:33:17;;;;;;;26.30;22.73;;;12.20;99.90;;;;;;5050868;28;20213;-82
2023/05/14 02:35:42;;;;;;;26.37;23.57;;;12.20;99.90;;;;;;5056883;28;20205;-81
2023/05/14 02:38:08;;;;;;;30.97;24.93;;;12.20;99.90;;;;;;5056410;28;20181;-81
2023/05/14 02:40:35;;;;;;;24.63;22.13;;;12.10;99.90;;;;;;5056459;28;20207;-82
2023/05/14 02:43:01;;;;;;;27.20;24.40;;;12.10;99.90;;;;;;5058999;28;20198;-83
2023/05/14 02:45:27;;;;;;;27.37;23.73;;;12.10;99.90;;;;;;5055042;28;20435;-83
2023/05/14 02:47:52;;;;;;;27.90;24.30;;;12.10;99.90;;;;;;5052445;28;20180;-82
2023/05/14 02:50:18;;;;;;;26.87;24.07;;;12.10;99.90;;;;;;5054317;28;20190;-82
2023/05/14 02:52:43;;;;;;;28.00;23.87;;;12.10;99.90;;;;;;5054229;28;20201;-82
2023/05/14 02:55:09;;;;;;;26.53;23.73;;;12.10;99.90;;;;;;5054831;28;20193;-82
2023/05/14 02:57:34;;;;;;;26.73;23.23;;;12.10;99.90;;;;;;5054087;28;20189;-81
2023/05/14 03:00:00;;;;;;;30.30;27.00;;;12.10;99.90;;;;;;5049222;28;20215;-82
2023/05/14 03:02:25;;;;;;;29.23;23.67;;;12.10;99.90;;;;;;5054399;28;20261;-81
2023/05/14 03:04:51;;;;;;;26.30;23.67;;;12.10;99.90;;;;;;5054351;28;20262;-81
2023/05/14 03:07:17;;;;;;;29.40;25.13;;;12.10;99.90;;;;;;5055771;28;20189;-82
2023/05/14 03:09:42;;;;;;;29.57;24.97;;;12.10;99.90;;;;;;5055131;28;20200;-81
2023/05/14 03:12:08;;;;;;;29.27;25.23;;;12.00;99.90;;;;;;5055361;28;20209;-83
2023/05/14 03:14:33;;;;;;;29.70;26.33;;;12.00;99.90;;;;;;5051457;28;20202;-81
2023/05/14 03:16:59;;;;;;;30.53;26.97;;;12.00;99.90;;;;;;5043335;28;20208;-81
2023/05/14 03:19:24;;;;;;;28.93;25.40;;;11.90;99.90;;;;;;5054462;28;20177;-80
2023/05/14 03:21:50;;;;;;;30.10;25.80;;;11.90;99.90;;;;;;5064082;28;20205;-81
2023/05/14 03:24:15;;;;;;;28.50;25.33;;;11.90;99.90;;;;;;5058492;28;20255;-81
2023/05/14 03:26:41;;;;;;;25.47;22.87;;;11.90;99.90;;;;;;5059670;28;20242;-81
2023/05/14 03:29:06;;;;;;;29.33;26.03;;;12.00;99.90;;;;;;5057327;28;20181;-82
2023/05/14 03:31:32;;;;;;;26.23;23.60;;;11.90;99.90;;;;;;5056443;28;20178;-81
2023/05/14 03:33:57;;;;;;;26.87;24.00;;;12.00;99.90;;;;;;5055012;28;20209;-79
2023/05/14 03:36:23;;;;;;;30.00;26.77;;;11.90;99.90;;;;;;5055955;28;20227;-82
2023/05/14 03:38:48;;;;;;;28.53;24.77;;;11.90;99.90;;;;;;5060133;28;20234;-81
2023/05/14 03:41:14;;;;;;;26.70;23.20;;;11.90;99.90;;;;;;5056551;28;20265;-80
2023/05/14 03:43:39;;;;;;;28.23;25.13;;;11.80;99.90;;;;;;5056604;28;20201;-83
2023/05/14 03:46:05;;;;;;;27.57;24.43;;;11.90;99.90;;;;;;5058229;28;20213;-82
2023/05/14 03:48:30;;;;;;;26.97;23.80;;;11.90;99.90;;;;;;5054760;28;20185;-80
2023/05/14 03:50:56;;;;;;;29.13;25.77;;;11.90;99.90;;;;;;5054633;28;20254;-82
2023/05/14 03:53:21;;;;;;;27.93;24.93;;;11.90;99.90;;;;;;5057887;28;20230;-81
2023/05/14 03:55:47;;;;;;;30.33;26.87;;;11.90;99.90;;;;;;5058607;28;20724;-82
2023/05/14 03:58:13;;;;;;;31.07;25.23;;;11.90;99.90;;;;;;5055961;28;20593;-82
2023/05/14 04:00:41;;;;;;;26.60;23.70;;;11.80;99.90;;;;;;5058657;28;20292;-82
2023/05/14 04:03:07;;;;;;;28.53;25.50;;;11.90;99.90;;;;;;5057244;28;20198;-80
2023/05/14 04:05:33;;;;;;;25.20;22.47;;;11.90;99.90;;;;;;5059423;28;20935;-82
2023/05/14 04:07:59;;;;;;;27.23;24.33;;;11.90;99.90;;;;;;5046962;28;20193;-79
2023/05/14 04:10:25;;;;;;;25.70;23.10;;;11.90;99.90;;;;;;5059136;28;20428;-81
2023/05/14 04:12:50;;;;;;;28.33;25.20;;;12.00;99.90;;;;;;5056962;28;20213;-82
2023/05/14 04:15:16;;;;;;;26.87;23.90;;;12.00;99.90;;;;;;5058230;28;20705;-81
2023/05/14 04:17:42;;;;;;;27.77;24.27;;;12.00;99.90;;;;;;5053359;28;20178;-82
2023/05/14 04:20:07;;;;;;;26.23;23.53;;;12.10;99.90;;;;;;5058978;28;20197;-83
2023/05/14 04:22:33;;;;;;;28.37;23.70;;;12.10;99.90;;;;;;5058403;28;20627;-81
2023/05/14 04:24:58;;;;;;;28.47;24.87;;;12.10;99.90;;;;;;5054231;28;20521;-82
2023/05/14 04:27:24;;;;;;;28.47;25.47;;;12.20;99.90;;;;;;5069530;28;20679;-82
2023/05/14 04:29:50;;;;;;;26.63;23.40;;;12.20;99.90;;;;;;5053931;28;20626;-83
2023/05/14 04:32:16;;;;;;;31.80;25.20;;;12.30;99.90;;;;;;5056179;28;20192;-80
2023/05/14 04:34:42;;;;;;;34.00;25.63;;;12.30;99.90;;;;;;5055921;28;20185;-80
2023/05/14 04:37:07;;;;;;;28.90;25.80;;;12.40;75.60;;;;;;5058719;28;20469;-81
2023/05/14 04:39:33;;;;;;;32.33;26.00;;;12.40;27.70;;;;;;5057712;28;20611;-82
2023/05/14 04:41:58;;;;;;;28.77;25.67;;;12.50;20.60;;;;;;5055337;28;20622;-83
2023/05/14 04:44:25;;;;;;;31.87;27.77;;;12.50;21.40;;;;;;5050155;28;20208;-82
2023/05/14 04:46:50;;;;;;;30.27;27.03;;;12.50;1.00;;;;;;5056403;28;20205;-82
2023/05/14 04:49:16;;;;;;;30.97;26.17;;;12.60;1.00;;;;;;5055591;28;20873;-82
2023/05/14 04:51:41;;;;;;;25.70;22.70;;;12.70;1.00;;;;;;5057988;28;20185;-82
2023/05/14 04:54:07;;;;;;;28.87;24.40;;;12.80;1.00;;;;;;5057319;28;20211;-81
2023/05/14 04:56:32;;;;;;;25.17;22.50;;;12.90;1.00;;;;;;5073706;28;20181;-82
2023/05/14 04:58:58;;;;;;;28.97;23.13;;;13.00;1.00;;;;;;5057993;28;20186;-84
2023/05/14 05:01:23;;;;;;;25.57;22.83;;;13.10;1.00;;;;;;5056093;28;20240;-81
2023/05/14 05:03:49;;;;;;;27.30;22.73;;;13.20;99.90;;;;;;5055277;28;20217;-82
2023/05/14 05:06:15;;;;;;;25.00;22.40;;;13.20;99.90;;;;;;5058215;28;20206;-81
2023/05/14 05:08:40;;;;;;;25.47;21.77;;;13.30;99.90;;;;;;5055387;28;20181;-82
2023/05/14 05:11:06;;;;;;;23.57;21.10;;;13.40;99.90;;;;;;5057100;28;20278;-83
2023/05/14 05:13:32;;;;;;;25.80;23.10;;;13.50;99.90;;;;;;5058630;28;20219;-81
2023/05/14 05:15:57;;;;;;;24.57;22.07;;;13.60;2.90;;;;;;5044187;28;20191;-79
2023/05/14 05:18:23;;;;;;;25.70;23.00;;;13.70;1.00;;;;;;5064595;28;20542;-83
2023/05/14 05:20:48;;;;;;;25.53;22.83;;;13.80;1.00;;;;;;5055371;28;20232;-83
2023/05/14 05:23:14;;;;;;;26.50;23.60;;;13.90;99.90;;;;;;5054738;28;20633;-80
2023/05/14 05:25:40;;;;;;;25.13;22.50;;;14.00;99.90;;;;;;5055874;28;20208;-81
2023/05/14 05:28:05;;;;;;;26.17;23.43;;;14.10;99.90;;;;;;5056913;28;20187;-81
2023/05/14 05:30:31;;;;;;;25.00;22.33;;;14.30;1.00;;;;;;5057247;28;20425;-81
2023/05/14 05:32:56;;;;;;;26.37;22.23;;;14.50;99.90;;;;;;5047608;28;20299;-78
2023/05/14 05:35:22;;;;;;;27.40;24.50;;;14.70;94.70;;;;;;5057406;28;20187;-81
2023/05/14 05:37:47;;;;;;;26.77;23.87;;;14.90;1.00;;;;;;5054006;28;20211;-83
2023/05/14 05:40:13;;;;;;;25.90;22.83;;;15.20;1.00;;;;;;5049152;28;20700;-82
2023/05/14 05:42:40;;;;;;;22.53;20.17;;;15.80;99.90;;;;;;5049645;28;20225;-83
2023/05/14 05:45:06;;;;;;;18.90;17.20;;;16.80;25.40;;;;;;5053079;28;20742;-82
2023/05/14 05:47:31;;;;;;;18.17;16.50;;;19.40;1.00;;;;;;5054976;28;20511;-83
2023/05/14 05:49:57;;;;;;;18.47;16.57;;;22.80;1.00;;;;;;5051992;28;20487;-83
2023/05/14 05:52:22;;;;;;;16.40;14.90;;;25.70;99.90;;;;;;5052633;28;20194;-82
2023/05/14 05:54:48;;;;;;;15.13;13.73;;;28.30;99.90;;;;;;5057589;28;20200;-84
2023/05/14 05:57:13;;;;;;;13.87;12.70;;;30.50;99.90;;;;;;5055637;28;20196;-83
2023/05/14 05:59:39;;;;;;;15.43;13.37;;;32.50;99.90;;;;;;5051989;28;20197;-84
2023/05/14 06:02:05;;;;;;;13.43;12.33;;;34.10;99.90;;;;;;5057265;28;20743;-84
2023/05/14 06:04:30;;;;;;;13.50;12.40;;;35.60;99.90;;;;;;5059262;28;20216;-83
2023/05/14 06:06:56;;;;;;;13.13;12.13;;;36.80;99.90;;;;;;5068169;28;20824;-82
2023/05/14 06:09:21;;;;;;;13.27;12.17;;;37.80;99.90;;;;;;5059185;28;20189;-85
2023/05/14 06:11:47;;;;;;;14.60;13.03;;;38.60;99.90;;;;;;5060264;28;20647;-85
2023/05/14 06:14:12;;;;;;;12.77;11.77;;;39.20;99.90;;;;;;5060978;28;20193;-83
2023/05/14 06:16:38;;;;;;;12.13;11.23;;;39.90;99.90;;;;;;5051666;28;20185;-85
2023/05/14 06:19:03;;;;;;;12.30;11.30;;;40.50;99.90;;;;;;5055441;28;20762;-84
2023/05/14 06:21:29;;;;;;;13.67;12.47;;;41.30;99.90;;;;;;5060771;28;20216;-84
2023/05/14 06:23:54;;;;;;;12.40;11.40;;;42.50;99.90;;;;;;5061670;28;20256;-85
2023/05/14 06:26:20;;;;;;;12.47;11.57;;;43.70;99.90;;;;;;5061793;28;20594;-85
2023/05/14 06:28:46;;;;;;;12.20;11.17;;;45.00;99.90;;;;;;5061499;28;20227;-85
2023/05/14 06:31:12;;;;;;;11.70;10.80;;;46.10;99.90;;;;;;5055604;28;20525;-83
2023/05/14 06:33:38;;;;;;;11.33;10.37;;;47.00;99.90;;;;;;5056214;28;20299;-84
2023/05/14 06:36:05;;;;;;;10.60;9.80;;;47.90;99.90;;;;;;5060775;28;20941;-86
2023/05/14 06:38:30;;;;;;;10.80;10.00;;;48.90;99.90;;;;;;5054582;28;20184;-85
2023/05/14 06:40:56;;;;;;;10.80;10.00;;;49.70;99.90;;;;;;5059801;28;20419;-85
2023/05/14 06:43:22;;;;;;;10.37;9.67;;;50.40;99.90;;;;;;5058749;28;20218;-86
2023/05/14 06:45:48;;;;;;;10.97;10.07;;;50.80;99.90;;;;;;5051458;28;20250;-85
2023/05/14 06:48:14;;;;;;;10.83;9.90;;;51.10;99.90;;;;;;5057712;28;20191;-84
2023/05/14 06:50:39;;;;;;;10.98;9.85;;;51.40;99.90;;;;;;5058573;28;20270;-85
2023/05/14 06:53:05;;;;;;;10.48;9.48;;;51.70;99.90;;;;;;5057908;28;20208;-83
2023/05/14 06:55:30;;;;;;;11.27;10.30;;;51.90;99.90;;;;;;5052129;28;20208;-82
2023/05/14 06:57:56;;;;;;;10.02;9.13;;;52.40;99.90;;;;;;5058806;28;20216;-83
2023/05/14 07:00:22;;;;;;;10.23;9.43;;;52.80;99.90;;;;;;5051064;28;20251;-83
2023/05/14 07:02:47;;;;;;;11.18;10.27;;;53.20;98.50;;;;;;5053593;28;20241;-81
2023/05/14 07:05:15;;;;;;;10.38;9.43;;;53.40;96.70;;;;;;5057436;28;20245;-83
2023/05/14 07:07:41;;;;;;;10.65;9.30;;;53.80;95.80;;;;;;5058384;28;20181;-82
2023/05/14 07:10:07;;;;;;;9.10;8.50;;;54.10;94.30;;;;;;5037973;28;20193;-82
2023/05/14 07:12:32;;;;;;;10.02;9.32;;;54.10;92.20;;;;;;5050965;28;20246;-84
2023/05/14 07:14:58;;;;;;;10.98;10.02;;;54.10;90.70;;;;;;5048703;28;20188;-83
2023/05/14 07:17:26;;;;;;;10.18;9.48;;;54.10;88.80;;;;;;5048482;28;20185;-81
2023/05/14 07:19:54;;;;;;;10.13;9.43;;;54.10;85.20;;;;;;5057890;28;20185;-82
2023/05/14 07:22:19;;;;;;;11.32;10.43;;;54.20;84.10;;;;;;5057174;28;20180;-83
2023/05/14 07:24:48;;;;;;;9.40;8.77;;;54.10;80.40;;;;;;5056546;28;20244;-81
2023/05/14 07:27:13;;;;;;;11.40;10.30;;;53.90;77.20;;;;;;5051733;28;20441;-83
2023/05/14 07:29:39;;;;;;;10.07;9.27;;;53.80;75.80;;;;;;5056087;28;20268;-83
2023/05/14 07:32:04;;;;;;;10.43;9.65;;;53.70;90.20;;;;;;5059778;28;20212;-83
2023/05/14 07:34:30;;;;;;;11.68;10.20;;;53.70;90.30;;;;;;5059016;28;20208;-84
2023/05/14 07:36:56;;;;;;;10.25;9.35;;;53.60;70.50;;;;;;5057916;28;20564;-83
2023/05/14 07:39:21;;;;;;;11.18;10.20;;;53.50;70.40;;;;;;5051719;28;20551;-81
2023/05/14 07:41:47;;;;;;;11.55;10.05;;;53.40;67.60;;;;;;5057022;28;20208;-81
2023/05/14 07:44:12;;;;;;;10.02;9.25;;;53.40;66.50;;;;;;5054630;28;20239;-84
2023/05/14 07:46:38;;;;;;;9.75;9.05;;;53.50;65.80;;;;;;5053256;28;20185;-82
2023/05/14 07:49:03;;;;;;;11.10;10.00;;;53.50;66.50;;;;;;5058000;28;20235;-82
2023/05/14 07:51:30;;;;;;;12.23;11.27;;;53.60;65.00;;;;;;5057636;28;20260;-81
2023/05/14 07:53:56;;;;;;;12.40;11.50;;;53.50;63.90;;;;;;5058411;28;20196;-84
2023/05/14 07:56:21;;;;;;;11.88;10.77;;;53.50;62.70;;;;;;5059262;28;20173;-81
2023/05/14 07:58:47;;;;;;;11.82;10.63;;;53.50;62.00;;;;;;5058232;28;20247;-84
2023/05/14 08:01:13;;;;;;;12.32;10.73;;;53.40;60.90;;;;;;5051222;28;20185;-82
2023/05/14 08:03:38;;;;;;;11.02;10.27;;;53.20;59.50;;;;;;5057812;28;20200;-82
2023/05/14 08:06:04;;;;;;;11.10;10.10;;;53.00;58.10;;;;;;5057465;28;20193;-84
2023/05/14 08:08:30;;;;;;;11.93;10.90;;;53.00;57.70;;;;;;5060869;28;20176;-81
2023/05/14 08:10:56;;;;;;;12.40;11.10;;;53.10;58.20;;;;;;5059462;28;20208;-83
2023/05/14 08:13:21;;;;;;;11.60;10.63;;;53.20;57.50;;;;;;5058017;28;20197;-82
2023/05/14 08:15:48;;;;;;;11.93;10.77;;;53.20;58.20;;;;;;5058079;28;20181;-83
2023/05/14 08:18:16;;;;;;;12.60;11.47;;;52.20;54.70;;;;;;5057418;28;20205;-83
2023/05/14 08:20:42;;;;;;;11.03;10.13;;;52.60;55.80;;;;;;5058798;28;20177;-84
2023/05/14 08:23:08;;;;;;;12.67;11.47;;;52.70;56.80;;;;;;5066306;28;20315;-84
2023/05/14 08:25:36;;;;;;;11.20;10.40;;;52.70;56.40;;;;;;5063646;28;20212;-82
2023/05/14 08:28:02;;;;;;;11.90;10.80;;;52.60;55.20;;;;;;5070327;28;20184;-83
2023/05/14 08:30:27;;;;;;;12.13;10.73;;;52.40;55.40;;;;;;5062508;28;20181;-82
2023/05/14 08:32:53;;;;;;;13.30;12.17;;;52.20;54.30;;;;;;5067950;28;20578;-83
2023/05/14 08:35:18;;;;;;;13.37;12.10;;;51.80;52.40;;;;;;5070115;28;20181;-82
2023/05/14 08:37:44;;;;;;;14.93;11.60;;;50.80;49.80;;;;;;5061831;28;20264;-84
2023/05/14 08:40:13;;;;;;;13.30;12.13;;;50.50;49.30;;;;;;5057511;28;20252;-83
2023/05/14 08:42:43;;;;;;;13.20;12.20;;;49.90;47.90;;;;;;5059912;28;20228;-83
2023/05/14 08:45:12;;;;;;;12.70;11.73;;;50.20;49.50;;;;;;5058736;28;20438;-83
2023/05/14 08:47:38;;;;;;;13.77;12.57;;;50.20;49.70;;;;;;5062006;28;20473;-84
2023/05/14 08:50:07;;;;;;;14.73;13.43;;;49.20;46.50;;;;;;5054760;28;20436;-84
2023/05/14 08:52:33;;;;;;;13.20;12.00;;;49.50;47.80;;;;;;5055060;28;20235;-84
2023/05/14 08:55:01;;;;;;;13.30;12.07;;;49.80;49.20;;;;;;5049367;28;20441;-84
2023/05/14 08:57:28;;;;;;;13.23;12.33;;;50.00;49.40;;;;;;5058757;28;20412;-84
2023/05/14 08:59:54;;;;;;;13.30;12.20;;;50.00;49.40;;;;;;5060170;28;20426;-85
2023/05/14 09:02:23;;;;;;;12.80;11.67;;;50.20;49.80;;;;;;5059332;28;20419;-83
2023/05/14 09:04:54;;;;;;;14.17;12.97;;;50.20;50.00;;;;;;5053768;28;20273;-84
2023/05/14 09:07:20;;;;;;;12.40;11.40;;;50.20;49.30;;;;;;5059742;28;20431;-83
2023/05/14 09:09:46;;;;;;;13.47;12.40;;;50.20;49.50;;;;;;5060071;28;20435;-84
2023/05/14 09:12:12;;;;;;;13.43;12.43;;;49.60;47.00;;;;;;5060261;28;20205;-82
2023/05/14 09:14:37;;;;;;;15.80;14.53;;;47.80;43.80;;;;;;5076325;28;20558;-84
2023/05/14 09:17:03;;;;;;;14.20;13.07;;;45.70;38.80;;;;;;5061669;28;20695;-82
2023/05/14 09:19:29;;;;;;;15.50;13.97;;;46.00;41.70;;;;;;5060809;28;20188;-83
2023/05/14 09:21:59;;;;;;;14.67;13.47;;;46.50;43.70;;;;;;5060477;28;20201;-82
2023/05/14 09:24:27;;;;;;;13.93;12.73;;;47.00;45.50;;;;;;5057080;28;20220;-83
2023/05/14 09:26:57;;;;;;;13.97;12.70;;;47.50;47.60;;;;;;5057773;28;20469;-85
2023/05/14 09:29:28;;;;;;;14.27;13.37;;;47.70;48.80;;;;;;5077341;28;20420;-84
2023/05/14 09:31:54;;;;;;;14.10;12.93;;;47.70;48.10;;;;;;5058188;28;20827;-84
2023/05/14 09:34:32;;;;;;;14.33;13.00;;;47.60;49.20;;;;;;5073875;28;20845;-84
2023/05/14 09:37:01;;;;;;;14.70;13.43;;;47.60;48.10;;;;;;5058083;28;20447;-83
2023/05/14 09:39:27;;;;;;;14.30;13.00;;;47.60;48.00;;;;;;5061658;28;20408;-83
2023/05/14 09:41:53;;;;;;;14.73;13.33;;;47.20;47.70;;;;;;5067269;28;20458;-84
2023/05/14 09:44:22;;;;;;;13.13;12.03;;;47.00;46.90;;;;;;5054008;28;20462;-84
2023/05/14 09:46:49;;;;;;;14.17;13.07;;;46.70;46.60;;;;;;5071095;28;20439;-84
2023/05/14 09:49:15;;;;;;;12.77;11.87;;;46.50;45.50;;;;;;5076782;28;20420;-83
2023/05/14 09:51:41;;;;;;;14.43;13.07;;;46.00;44.30;;;;;;5063250;28;20511;-83
2023/05/14 09:54:07;;;;;;;14.70;13.60;;;44.60;41.10;;;;;;5061873;28;20436;-84
2023/05/14 09:56:33;;;;;;;13.20;12.10;;;43.40;39.50;;;;;;5056217;28;20174;-83
2023/05/14 09:58:59;;;;;;;14.37;13.07;;;43.10;39.10;;;;;;5055907;28;20529;-83
2023/05/14 10:01:27;;;;;;;14.83;13.53;;;42.40;38.40;;;;;;5059590;28;20432;-83
2023/05/14 10:03:53;;;;;;;14.33;13.03;;;42.40;39.90;;;;;;5059310;28;20213;-81
2023/05/14 10:06:22;;;;;;;13.60;12.40;;;42.50;40.70;;;;;;5060158;28;20448;-84
2023/05/14 10:08:52;;;;;;;14.00;12.07;;;42.70;41.60;;;;;;5060166;28;20443;-83
2023/05/14 10:11:23;;;;;;;12.30;11.13;;;42.70;41.30;;;;;;5060990;28;20460;-83
2023/05/14 10:14:02;;;;;;;13.57;12.30;;;42.60;42.10;;;;;;5060297;28;20945;-83
2023/05/14 10:16:32;;;;;;;11.33;10.43;;;43.00;43.40;;;;;;5065616;28;20443;-83
2023/05/14 10:19:06;;;;;;;9.77;8.97;;;43.40;44.90;;;;;;5053631;28;20515;-83
2023/05/14 10:21:35;;;;;;;11.60;10.50;;;43.90;45.90;;;;;;5058939;28;20446;-83
2023/05/14 10:24:03;;;;;;;10.57;9.60;;;44.30;47.10;;;;;;5059793;28;20499;-85
2023/05/14 10:26:29;;;;;;;10.47;9.60;;;44.70;48.10;;;;;;5058783;28;20517;-82
2023/05/14 10:28:55;;;;;;;10.97;10.13;;;44.80;47.80;;;;;;5059905;28;20439;-82
2023/05/14 10:31:52;;;;;;;12.13;11.13;;;44.10;44.00;;;;;;5072862;28;20474;-83
2023/05/14 10:34:37;;;;;;;10.97;9.90;;;43.30;41.40;;;;;;5054359;28;20469;-84
2023/05/14 10:37:14;;;;;;;11.80;10.80;;;43.10;40.90;;;;;;5058316;28;20493;-83
2023/05/14 10:39:43;;;;;;;11.27;10.27;;;42.70;40.80;;;;;;5058054;28;20439;-85
2023/05/14 10:42:22;;;;;;;13.03;11.90;;;42.60;40.40;;;;;;5066424;28;20822;-83
2023/05/14 10:45:00;;;;;;;13.03;12.03;;;42.40;40.80;;;;;;5056121;28;20440;-84
2023/05/14 10:47:30;;;;;;;12.97;11.80;;;42.60;41.00;;;;;;5058839;28;20440;-86
2023/05/14 10:50:02;;;;;;;12.80;11.60;;;42.80;41.90;;;;;;5057233;28;20424;-84
2023/05/14 10:52:28;;;;;;;13.57;12.33;;;41.60;39.40;;;;;;5055214;28;20467;-84
2023/05/14 10:54:59;;;;;;;12.60;11.60;;;40.30;36.40;;;;;;5060598;28;20791;-84
2023/05/14 10:57:27;;;;;;;12.40;11.50;;;39.20;34.90;;;;;;5059996;28;20502;-83
2023/05/14 10:59:56;;;;;;;13.23;12.13;;;39.20;37.00;;;;;;5069656;28;20432;-84
2023/05/14 11:02:27;;;;;;;12.60;11.50;;;38.40;35.10;;;;;;5059532;28;20455;-83
2023/05/14 11:05:05;;;;;;;15.53;14.00;;;39.10;38.20;;;;;;5057770;28;20435;-84
2023/05/14 11:07:36;;;;;;;12.60;11.47;;;39.80;40.80;;;;;;5046975;28;20436;-83
2023/05/14 11:10:20;;;;;;;14.47;13.00;;;40.50;43.60;;;;;;5064379;28;20432;-83
2023/05/14 11:12:49;;;;;;;13.90;12.60;;;40.90;46.10;;;;;;5053829;28;20455;-82
2023/05/14 11:15:20;;;;;;;15.60;14.10;;;41.00;46.80;;;;;;5058333;28;20469;-81
2023/05/14 11:17:47;;;;;;;13.80;11.57;;;41.00;46.70;;;;;;5059301;28;20431;-82
2023/05/14 11:20:13;;;;;;;12.33;11.20;;;41.20;47.30;;;;;;5058675;28;20420;-83
2023/05/14 11:22:40;;;;;;;12.67;11.57;;;41.10;46.80;;;;;;5058365;28;20471;-84
2023/05/14 11:25:07;;;;;;;12.33;11.13;;;41.10;46.80;;;;;;5062366;28;20511;-84
2023/05/14 11:27:34;;;;;;;11.30;10.20;;;40.90;45.60;;;;;;5061515;28;20424;-85
2023/05/14 11:30:00;;;;;;;12.20;11.10;;;41.00;45.90;;;;;;5060638;28;20456;-84
2023/05/14 11:32:26;;;;;;;11.73;10.47;;;40.90;45.00;;;;;;5056259;28;20470;-83
2023/05/14 11:34:52;;;;;;;8.87;8.00;;;40.90;44.50;;;;;;5058647;28;20209;-83
2023/05/14 11:37:18;;;;;;;12.37;9.67;;;39.70;40.50;;;;;;5061909;28;20174;-83
2023/05/14 11:40:01;;;;;;;9.83;8.83;;;39.40;40.50;;;;;;5053826;28;20418;-83
2023/05/14 11:42:27;;;;;;;11.40;7.80;;;38.50;39.10;;;;;;5057555;28;20189;-84
2023/05/14 11:44:52;;;;;;;8.83;7.93;;;37.70;37.60;;;;;;5063598;28;20519;-84
2023/05/14 11:47:20;;;;;;;12.03;7.30;;;36.90;35.70;;;;;;5060284;28;20269;-79
2023/05/14 11:49:46;;;;;;;9.37;8.43;;;37.00;36.80;;;;;;5064186;28;20766;-85
2023/05/14 11:52:13;;;;;;;8.87;8.07;;;37.70;38.60;;;;;;5060878;28;20495;-82
2023/05/14 11:54:40;;;;;;;6.30;5.80;;;37.50;39.00;;;;;;5058804;28;20420;-83
2023/05/14 11:57:15;;;;;;;6.77;5.73;;;37.30;37.90;;;;;;5063968;28;20427;-84
2023/05/14 11:59:40;;;;;;;6.83;6.13;;;36.90;36.30;;;;;;5060197;28;20480;-83
2023/05/14 12:02:11;;;;;;;10.83;5.70;;;36.40;34.50;;;;;;5062638;28;20491;-84
2023/05/14 12:04:37;;;;;;;7.33;4.37;;;35.80;33.80;;;;;;5061195;28;20246;-84
2023/05/14 12:07:11;;;;;;;10.53;5.00;;;35.10;31.00;;;;;;5061932;28;20463;-84
2023/05/14 12:09:42;;;;;;;6.30;4.93;;;34.30;28.80;;;;;;5063950;28;20478;-83
2023/05/14 12:12:11;;;;;;;7.20;4.47;;;33.70;28.40;;;;;;5063743;28;20467;-81
2023/05/14 12:14:42;;;;;;;6.50;5.80;;;32.80;27.90;;;;;;5055711;28;20437;-83
2023/05/14 12:17:15;;;;;;;5.67;4.90;;;32.20;26.80;;;;;;5054302;28;20515;-82
2023/05/14 12:19:42;;;;;;;6.77;5.77;;;31.90;26.90;;;;;;5063156;28;20924;-84
2023/05/14 12:22:10;;;;;;;5.93;5.30;;;31.60;27.50;;;;;;5060931;28;20855;-82
2023/05/14 12:24:36;;;;;;;6.33;5.70;;;31.30;27.00;;;;;;5062497;28;20788;-83
2023/05/14 12:27:02;;;;;;;8.90;5.90;;;31.20;27.70;;;;;;5062689;28;20419;-83
2023/05/14 12:29:28;;;;;;;12.70;6.27;;;31.20;28.30;;;;;;5062673;28;20444;-84